Time,TemperatureF,DewpointF,PressureIn,WindDirection,WindDirectionDegrees,WindSpeedMPH,WindSpeedGustMPH,Humidity,HourlyPrecipIn,Conditions,Clouds,dailyrainin,SoftwareType,DateUTC
2013-06-01 00:01:00,76.8,69.8,29.78,ENE,71,0.0,0.0,79,0.00,,,0.00,VWS V13.01,2013-06-01 05:01:00,
2013-06-01 00:06:00,76.8,69.4,29.78,ENE,71,0.0,0.0,78,0.00,,,0.00,VWS V13.01,2013-06-01 05:06:00,
2013-06-01 00:11:00,76.8,69.8,29.78,NE,41,0.0,0.0,79,0.00,,,0.00,VWS V13.01,2013-06-01 05:11:00,
2013-06-01 00:16:00,76.6,69.6,29.78,NE,41,0.0,0.0,79,0.00,,,0.00,VWS V13.01,2013-06-01 05:16:00,
2013-06-01 00:21:00,76.6,70.0,29.78,NE,41,0.0,0.0,80,0.00,,,0.00,VWS V13.01,2013-06-01 05:21:00,
2013-06-01 00:26:00,76.6,70.0,29.78,NE,47,0.0,0.0,80,0.00,,,0.00,VWS V13.01,2013-06-01 05:26:00,
2013-06-01 00:31:00,76.8,70.2,29.78,ENE,75,0.0,0.0,80,0.00,,,0.00,VWS V13.01,2013-06-01 05:31:00,
2013-06-01 00:35:00,76.8,69.8,29.78,ENE,73,0.0,0.0,79,0.00,,,0.00,VWS V13.01,2013-06-01 05:35:00,
2013-06-01 00:40:00,77.0,70.0,29.78,ESE,114,0.0,0.0,79,0.00,,,0.00,VWS V13.01,2013-06-01 05:40:00,
2013-06-01 00:45:00,77.0,70.0,29.75,ESE,118,0.0,0.0,79,0.00,,,0.00,VWS V13.01,2013-06-01 05:45:00,
2013-06-01 00:50:00,77.2,69.8,29.75,ESE,107,4.9,5.4,78,0.00,,,0.00,VWS V13.01,2013-06-01 05:50:00,
2013-06-01 00:55:00,77.3,69.9,29.75,East,85,3.1,3.1,78,0.00,,,0.00,VWS V13.01,2013-06-01 05:55:00,
2013-06-01 01:00:00,77.5,69.8,29.75,East,89,4.9,4.9,77,0.00,,,0.00,VWS V13.01,2013-06-01 06:00:00,
2013-06-01 01:05:00,77.5,69.8,29.75,ENE,68,3.1,3.1,77,0.00,,,0.00,VWS V13.01,2013-06-01 06:05:00,
2013-06-01 01:10:00,77.3,69.6,29.75,NE,42,0.0,3.1,77,0.00,,,0.00,VWS V13.01,2013-06-01 06:10:00,
2013-06-01 01:15:00,77.3,69.9,29.75,ENE,60,3.6,3.6,78,0.00,,,0.00,VWS V13.01,2013-06-01 06:15:00,
2013-06-01 01:20:00,77.3,69.9,29.75,ESE,115,4.9,4.9,78,0.00,,,0.00,VWS V13.01,2013-06-01 06:20:00,
2013-06-01 01:25:00,77.3,69.9,29.75,East,101,2.2,2.7,78,0.00,,,0.00,VWS V13.01,2013-06-01 06:25:00,
2013-06-01 01:30:00,77.2,70.2,29.75,East,79,4.0,4.0,79,0.00,,,0.00,VWS V13.01,2013-06-01 06:30:00,
2013-06-01 01:35:00,77.2,70.2,29.75,ESE,123,5.4,5.4,79,0.00,,,0.00,VWS V13.01,2013-06-01 06:35:00,
2013-06-01 01:40:00,77.0,70.0,29.75,East,99,3.6,4.9,79,0.00,,,0.00,VWS V13.01,2013-06-01 06:40:00,
2013-06-01 01:45:00,77.0,70.3,29.75,ENE,73,2.2,2.7,80,0.00,,,0.00,VWS V13.01,2013-06-01 06:45:00,
2013-06-01 01:50:00,77.0,70.3,29.75,SSE,153,2.2,2.7,80,0.00,,,0.00,VWS V13.01,2013-06-01 06:50:00,
2013-06-01 01:55:00,77.0,70.3,29.75,East,101,3.6,4.0,80,0.00,,,0.00,VWS V13.01,2013-06-01 06:55:00,
2013-06-01 02:00:00,76.8,70.2,29.75,East,89,4.9,4.9,80,0.00,,,0.00,VWS V13.01,2013-06-01 07:00:00,
2013-06-01 02:05:00,76.6,70.4,29.75,ESE,104,4.9,4.9,81,0.00,,,0.00,VWS V13.01,2013-06-01 07:05:00,
2013-06-01 02:10:00,76.6,70.4,29.75,East,87,0.0,0.0,81,0.00,,,0.00,VWS V13.01,2013-06-01 07:10:00,
2013-06-01 02:15:00,76.6,70.4,29.75,East,84,2.7,2.7,81,0.00,,,0.00,VWS V13.01,2013-06-01 07:15:00,
2013-06-01 02:20:00,76.6,70.4,29.75,SE,127,0.0,0.0,81,0.00,,,0.00,VWS V13.01,2013-06-01 07:20:00,
2013-06-01 02:25:00,76.6,70.4,29.75,East,93,2.2,3.1,81,0.00,,,0.00,VWS V13.01,2013-06-01 07:25:00,
2013-06-01 02:30:00,76.4,70.2,29.75,East,88,2.2,3.6,81,0.00,,,0.00,VWS V13.01,2013-06-01 07:30:00,
2013-06-01 02:35:00,76.4,70.5,29.75,East,91,6.3,6.3,82,0.00,,,0.00,VWS V13.01,2013-06-01 07:35:00,
2013-06-01 02:40:00,76.3,70.4,29.75,SE,131,6.3,6.3,82,0.00,,,0.00,VWS V13.01,2013-06-01 07:40:00,
2013-06-01 02:45:00,76.3,70.4,29.75,ENE,57,3.6,3.6,82,0.00,,,0.00,VWS V13.01,2013-06-01 07:45:00,
2013-06-01 02:50:00,76.3,70.4,29.75,ENE,76,0.0,2.2,82,0.00,,,0.00,VWS V13.01,2013-06-01 07:50:00,
2013-06-01 02:55:00,76.4,70.5,29.75,West,275,5.4,5.8,82,0.00,,,0.00,VWS V13.01,2013-06-01 07:55:00,
2013-06-01 03:00:00,74.1,59.8,29.78,WNW,297,12.3,12.3,61,0.00,,,0.00,VWS V13.01,2013-06-01 08:00:00,
2013-06-01 03:05:00,73.0,59.7,29.78,WNW,291,5.8,8.1,63,0.00,,,0.00,VWS V13.01,2013-06-01 08:05:00,
2013-06-01 03:10:00,72.8,60.0,29.78,North,356,2.2,2.2,64,0.00,,,0.00,VWS V13.01,2013-06-01 08:10:00,
2013-06-01 03:15:00,72.1,59.3,29.75,NNW,345,3.6,4.9,64,0.00,,,0.00,VWS V13.01,2013-06-01 08:15:00,
2013-06-01 03:20:00,71.6,59.2,29.75,NNW,337,2.7,2.7,65,0.00,,,0.00,VWS V13.01,2013-06-01 08:20:00,
2013-06-01 03:25:00,71.2,59.7,29.75,WSW,251,3.6,3.6,67,0.00,,,0.00,VWS V13.01,2013-06-01 08:25:00,
2013-06-01 03:30:00,71.0,60.0,29.78,West,277,5.4,5.4,68,0.00,,,0.00,VWS V13.01,2013-06-01 08:30:00,
2013-06-01 03:35:00,70.5,60.7,29.78,West,268,6.3,6.3,71,0.00,,,0.00,VWS V13.01,2013-06-01 08:35:00,
2013-06-01 03:40:00,67.4,61.8,29.78,WNW,301,18.3,18.3,82,0.00,,,0.00,VWS V13.01,2013-06-01 08:40:00,
2013-06-01 03:45:00,65.3,62.9,29.80,West,281,5.4,8.1,92,0.08,,,0.08,VWS V13.01,2013-06-01 08:45:00,
2013-06-01 03:50:00,64.7,62.4,29.80,WNW,282,7.6,10.1,92,0.08,,,0.08,VWS V13.01,2013-06-01 08:50:00,
2013-06-01 03:55:00,64.7,62.7,29.80,North,360,0.0,2.7,93,0.08,,,0.08,VWS V13.01,2013-06-01 08:55:00,
2013-06-01 04:00:00,64.7,63.0,29.83,WNW,293,0.0,0.0,94,0.08,,,0.08,VWS V13.01,2013-06-01 09:00:00,
2013-06-01 04:05:00,64.6,63.1,29.83,NE,44,0.0,2.7,95,0.08,,,0.08,VWS V13.01,2013-06-01 09:05:00,
2013-06-01 04:10:00,64.6,63.4,29.83,ENE,67,2.7,4.0,96,0.12,,,0.12,VWS V13.01,2013-06-01 09:10:00,
2013-06-01 04:15:00,64.4,63.2,29.80,East,84,0.0,0.0,96,0.12,,,0.12,VWS V13.01,2013-06-01 09:15:00,
2013-06-01 04:20:00,64.4,63.2,29.80,East,84,0.0,0.0,96,0.12,,,0.12,VWS V13.01,2013-06-01 09:20:00,
2013-06-01 04:25:00,64.2,63.0,29.80,East,84,0.0,0.0,96,0.12,,,0.12,VWS V13.01,2013-06-01 09:25:00,
2013-06-01 04:30:00,64.4,63.5,29.80,East,80,0.0,0.0,97,0.12,,,0.12,VWS V13.01,2013-06-01 09:30:00,
2013-06-01 04:35:00,64.2,63.3,29.80,SSE,166,4.0,4.9,97,0.12,,,0.12,VWS V13.01,2013-06-01 09:35:00,
2013-06-01 04:40:00,64.2,63.6,29.80,ESE,120,4.0,4.0,98,0.16,,,0.16,VWS V13.01,2013-06-01 09:40:00,
2013-06-01 04:45:00,64.2,63.9,29.78,East,86,2.7,2.7,99,0.12,,,0.16,VWS V13.01,2013-06-01 09:45:00,
2013-06-01 04:50:00,64.2,64.2,29.78,ENE,61,3.1,3.1,100,0.08,,,0.16,VWS V13.01,2013-06-01 09:50:00,
2013-06-01 04:55:00,64.0,64.0,29.78,ESE,102,2.7,2.7,100,0.08,,,0.16,VWS V13.01,2013-06-01 09:55:00,
2013-06-01 05:00:00,64.0,64.0,29.78,South,177,3.1,4.0,100,0.08,,,0.16,VWS V13.01,2013-06-01 10:00:00,
2013-06-01 05:05:00,64.2,64.2,29.78,ESE,102,2.2,2.2,100,0.08,,,0.16,VWS V13.01,2013-06-01 10:05:00,
2013-06-01 05:10:00,64.6,64.6,29.78,WSW,237,24.2,24.2,100,0.08,,,0.16,VWS V13.01,2013-06-01 10:10:00,
2013-06-01 05:15:00,64.4,64.4,29.86,SSW,194,5.4,6.3,100,0.04,,,0.16,VWS V13.01,2013-06-01 10:15:00,
2013-06-01 05:20:00,64.2,64.2,29.86,SW,229,2.2,3.6,100,0.20,,,0.31,VWS V13.01,2013-06-01 10:20:00,
2013-06-01 05:25:00,64.0,64.0,29.86,ENE,75,4.0,5.4,100,0.28,,,0.39,VWS V13.01,2013-06-01 10:25:00,
2013-06-01 05:30:00,64.0,64.0,29.83,East,100,5.8,5.8,100,0.35,,,0.47,VWS V13.01,2013-06-01 10:30:00,
2013-06-01 05:35:00,63.8,63.8,29.83,SE,133,0.0,3.6,100,0.39,,,0.51,VWS V13.01,2013-06-01 10:35:00,
2013-06-01 05:40:00,63.8,63.8,29.83,ESE,119,5.4,5.4,100,0.35,,,0.51,VWS V13.01,2013-06-01 10:40:00,
2013-06-01 05:45:00,63.8,63.8,29.80,ESE,120,4.0,6.3,100,0.35,,,0.51,VWS V13.01,2013-06-01 10:45:00,
2013-06-01 05:50:00,63.8,63.8,29.80,South,175,0.0,3.1,100,0.39,,,0.55,VWS V13.01,2013-06-01 10:50:00,
2013-06-01 05:55:00,63.8,63.8,29.80,East,79,3.1,5.8,100,0.39,,,0.55,VWS V13.01,2013-06-01 10:55:00,
2013-06-01 06:00:00,63.8,63.8,29.80,SE,134,5.4,5.4,100,0.39,,,0.55,VWS V13.01,2013-06-01 11:00:00,
2013-06-01 06:05:00,64.0,64.0,29.80,ESE,105,4.0,6.3,100,0.39,,,0.55,VWS V13.01,2013-06-01 11:05:00,
2013-06-01 06:10:00,63.8,63.8,29.80,East,101,0.0,0.0,100,0.39,,,0.55,VWS V13.01,2013-06-01 11:10:00,
2013-06-01 06:15:00,63.8,63.8,29.80,East,91,5.8,5.8,100,0.39,,,0.55,VWS V13.01,2013-06-01 11:15:00,
2013-06-01 06:20:00,63.7,63.7,29.80,East,82,0.0,0.0,100,0.24,,,0.55,VWS V13.01,2013-06-01 11:20:00,
2013-06-01 06:25:00,63.7,63.7,29.80,ENE,62,0.0,0.0,100,0.20,,,0.55,VWS V13.01,2013-06-01 11:25:00,
2013-06-01 06:30:00,63.8,63.8,29.83,WNW,292,5.4,5.8,100,0.12,,,0.55,VWS V13.01,2013-06-01 11:30:00,
2013-06-01 06:35:00,63.8,63.8,29.83,NW,304,8.1,8.7,100,0.04,,,0.59,VWS V13.01,2013-06-01 11:35:00,
2013-06-01 06:40:00,63.8,63.8,29.83,WSW,249,6.3,6.3,100,0.08,,,0.59,VWS V13.01,2013-06-01 11:40:00,
2013-06-01 06:45:00,63.8,63.8,29.86,South,171,2.7,2.7,100,0.24,,,0.75,VWS V13.01,2013-06-01 11:45:00,
2013-06-01 06:50:00,63.8,63.8,29.86,SSE,164,3.1,3.1,100,0.24,,,0.79,VWS V13.01,2013-06-01 11:50:00,
2013-06-01 06:55:00,63.7,63.7,29.86,SSE,157,2.7,5.8,100,0.28,,,0.87,VWS V13.01,2013-06-01 11:55:00,
2013-06-01 07:00:00,63.7,63.7,29.86,ENE,60,5.4,5.4,100,0.31,,,0.87,VWS V13.01,2013-06-01 12:00:00,
2013-06-01 07:05:00,63.5,63.5,29.86,NNE,15,2.7,3.1,100,0.35,,,0.91,VWS V13.01,2013-06-01 12:05:00,
2013-06-01 07:10:00,63.5,63.5,29.86,NNE,30,3.1,3.1,100,0.35,,,0.91,VWS V13.01,2013-06-01 12:10:00,
2013-06-01 07:15:00,63.5,63.5,29.83,East,99,3.6,4.0,100,0.35,,,0.94,VWS V13.01,2013-06-01 12:15:00,
2013-06-01 07:20:00,63.5,63.5,29.83,SE,128,3.6,7.6,100,0.39,,,0.94,VWS V13.01,2013-06-01 12:20:00,
2013-06-01 07:24:00,63.5,63.5,29.83,West,261,0.0,3.1,100,0.43,,,0.98,VWS V13.01,2013-06-01 12:24:00,
2013-06-01 07:29:00,63.5,63.5,29.86,SSE,155,2.2,2.7,100,0.43,,,0.98,VWS V13.01,2013-06-01 12:29:00,
2013-06-01 07:34:00,63.5,63.5,29.86,SE,140,0.0,0.0,100,0.43,,,0.98,VWS V13.01,2013-06-01 12:34:00,
2013-06-01 07:39:00,63.5,63.5,29.86,NE,53,0.0,2.7,100,0.39,,,0.98,VWS V13.01,2013-06-01 12:39:00,
2013-06-01 07:44:00,63.5,63.5,29.83,East,96,3.6,3.6,100,0.24,,,0.98,VWS V13.01,2013-06-01 12:44:00,
2013-06-01 07:49:00,63.5,63.5,29.83,NE,34,2.7,3.6,100,0.24,,,1.02,VWS V13.01,2013-06-01 12:49:00,
2013-06-01 07:54:00,63.5,63.5,29.83,NE,36,3.1,3.6,100,0.20,,,1.02,VWS V13.01,2013-06-01 12:54:00,
2013-06-01 07:59:00,63.5,63.5,29.83,ENE,78,2.7,3.1,100,0.16,,,1.02,VWS V13.01,2013-06-01 12:59:00,
2013-06-01 08:04:00,63.3,63.3,29.83,East,101,0.0,2.2,100,0.12,,,1.02,VWS V13.01,2013-06-01 13:04:00,
2013-06-01 08:09:00,63.5,63.5,29.83,ESE,120,4.9,4.9,100,0.12,,,1.02,VWS V13.01,2013-06-01 13:09:00,
2013-06-01 08:14:00,63.5,63.5,29.86,SSW,194,3.6,5.8,100,0.12,,,1.02,VWS V13.01,2013-06-01 13:14:00,
2013-06-01 08:19:00,63.5,63.5,29.86,WNW,292,0.0,2.2,100,0.08,,,1.02,VWS V13.01,2013-06-01 13:19:00,
2013-06-01 08:24:00,63.5,63.5,29.86,NNE,33,3.1,4.0,100,0.04,,,1.02,VWS V13.01,2013-06-01 13:24:00,
2013-06-01 08:29:00,63.5,63.5,29.80,East,94,2.7,3.1,100,0.08,,,1.06,VWS V13.01,2013-06-01 13:29:00,
2013-06-01 08:34:00,63.3,63.3,29.80,South,180,5.4,5.4,100,0.08,,,1.06,VWS V13.01,2013-06-01 13:34:00,
2013-06-01 08:39:00,63.3,63.3,29.80,NE,36,2.2,3.1,100,0.08,,,1.06,VWS V13.01,2013-06-01 13:39:00,
2013-06-01 08:44:00,63.3,63.3,29.80,ENE,74,3.6,4.9,100,0.08,,,1.06,VWS V13.01,2013-06-01 13:44:00,
2013-06-01 08:49:00,63.3,63.3,29.80,ENE,77,5.4,7.6,100,0.04,,,1.06,VWS V13.01,2013-06-01 13:49:00,
2013-06-01 08:54:00,63.3,63.3,29.80,SE,125,8.1,8.1,100,0.04,,,1.06,VWS V13.01,2013-06-01 13:54:00,
2013-06-01 08:59:00,63.3,63.3,29.78,ENE,74,4.9,5.8,100,0.04,,,1.06,VWS V13.01,2013-06-01 13:59:00,
2013-06-01 09:04:00,63.3,63.3,29.78,East,89,5.8,8.1,100,0.04,,,1.06,VWS V13.01,2013-06-01 14:04:00,
2013-06-01 09:09:00,63.3,63.3,29.78,East,93,9.6,9.6,100,0.04,,,1.10,VWS V13.01,2013-06-01 14:09:00,
2013-06-01 09:14:00,63.3,63.3,29.78,East,90,6.3,8.3,100,0.08,,,1.10,VWS V13.01,2013-06-01 14:14:00,
2013-06-01 09:19:00,63.3,63.3,29.78,ENE,67,6.3,7.6,100,0.08,,,1.10,VWS V13.01,2013-06-01 14:19:00,
2013-06-01 09:24:00,63.5,63.5,29.78,ENE,70,5.4,5.4,100,0.08,,,1.10,VWS V13.01,2013-06-01 14:24:00,
2013-06-01 09:29:00,63.5,63.5,29.80,ENE,66,7.6,8.1,100,0.08,,,1.14,VWS V13.01,2013-06-01 14:29:00,
2013-06-01 09:34:00,63.5,63.5,29.80,NNE,13,2.7,3.6,100,0.08,,,1.14,VWS V13.01,2013-06-01 14:34:00,
2013-06-01 09:39:00,63.7,63.7,29.80,North,353,3.6,4.9,100,0.08,,,1.14,VWS V13.01,2013-06-01 14:39:00,
2013-06-01 09:44:00,63.7,63.7,29.80,NNE,22,2.7,2.7,100,0.08,,,1.14,VWS V13.01,2013-06-01 14:44:00,
2013-06-01 09:49:00,63.7,63.7,29.80,East,97,6.3,6.3,100,0.08,,,1.14,VWS V13.01,2013-06-01 14:49:00,
2013-06-01 09:54:00,63.7,63.7,29.80,ESE,111,4.0,4.0,100,0.08,,,1.14,VWS V13.01,2013-06-01 14:54:00,
2013-06-01 09:59:00,63.7,63.7,29.83,SE,143,0.0,0.0,100,0.08,,,1.14,VWS V13.01,2013-06-01 14:59:00,
2013-06-01 10:04:00,63.8,63.8,29.83,NE,47,7.2,7.2,100,0.12,,,1.18,VWS V13.01,2013-06-01 15:04:00,
2013-06-01 10:09:00,63.8,63.8,29.83,ESE,120,4.0,5.8,100,0.12,,,1.18,VWS V13.01,2013-06-01 15:09:00,
2013-06-01 10:14:00,63.7,63.7,29.80,ENE,60,5.4,5.4,100,0.08,,,1.18,VWS V13.01,2013-06-01 15:14:00,
2013-06-01 10:19:00,63.8,63.8,29.80,South,173,5.8,5.8,100,0.08,,,1.18,VWS V13.01,2013-06-01 15:19:00,
2013-06-01 10:24:00,63.8,63.8,29.80,ESE,115,4.0,4.0,100,0.08,,,1.18,VWS V13.01,2013-06-01 15:24:00,
2013-06-01 10:29:00,64.0,64.0,29.86,SE,129,4.9,4.9,100,0.08,,,1.18,VWS V13.01,2013-06-01 15:29:00,
2013-06-01 10:34:00,64.0,64.0,29.86,West,265,3.6,4.0,100,0.04,,,1.18,VWS V13.01,2013-06-01 15:34:00,
2013-06-01 10:39:00,64.0,64.0,29.86,South,184,4.0,8.3,100,0.04,,,1.18,VWS V13.01,2013-06-01 15:39:00,
2013-06-01 10:44:00,63.7,63.7,29.83,NE,55,3.1,4.0,100,0.04,,,1.18,VWS V13.01,2013-06-01 15:44:00,
2013-06-01 10:49:00,63.7,63.7,29.83,WNW,289,3.6,3.6,100,0.04,,,1.18,VWS V13.01,2013-06-01 15:49:00,
2013-06-01 10:54:00,63.7,63.7,29.83,WSW,250,3.1,3.1,100,0.08,,,1.22,VWS V13.01,2013-06-01 15:54:00,
2013-06-01 10:59:00,63.7,63.7,29.89,SW,234,5.8,5.8,100,0.08,,,1.22,VWS V13.01,2013-06-01 15:59:00,
2013-06-01 11:04:00,63.8,63.8,29.89,SW,228,4.0,4.0,100,0.04,,,1.22,VWS V13.01,2013-06-01 16:04:00,
2013-06-01 11:09:00,63.8,63.8,29.89,SE,126,3.6,4.0,100,0.04,,,1.22,VWS V13.01,2013-06-01 16:09:00,
2013-06-01 11:14:00,63.8,63.8,29.86,South,180,0.0,0.0,100,0.04,,,1.22,VWS V13.01,2013-06-01 16:14:00,
2013-06-01 11:19:00,63.8,63.8,29.86,SSW,194,2.7,4.0,100,0.04,,,1.22,VWS V13.01,2013-06-01 16:19:00,
2013-06-01 11:24:00,63.8,63.8,29.86,East,83,0.0,0.0,100,0.04,,,1.22,VWS V13.01,2013-06-01 16:24:00,
2013-06-01 11:29:00,63.8,63.8,29.86,WNW,294,0.0,0.0,100,0.04,,,1.22,VWS V13.01,2013-06-01 16:29:00,
2013-06-01 11:34:00,64.0,64.0,29.86,WNW,291,0.0,0.0,100,0.04,,,1.22,VWS V13.01,2013-06-01 16:34:00,
2013-06-01 11:39:00,64.0,64.0,29.86,NE,37,3.6,4.0,100,0.04,,,1.22,VWS V13.01,2013-06-01 16:39:00,
2013-06-01 11:44:00,64.2,64.2,29.86,NNE,23,0.0,0.0,100,0.04,,,1.22,VWS V13.01,2013-06-01 16:44:00,
2013-06-01 11:49:00,64.2,64.2,29.86,NNE,23,0.0,0.0,100,0.04,,,1.22,VWS V13.01,2013-06-01 16:49:00,
2013-06-01 11:54:00,64.2,64.2,29.86,NNE,23,0.0,0.0,100,0.00,,,1.22,VWS V13.01,2013-06-01 16:54:00,
2013-06-01 11:59:00,64.2,64.2,29.86,NE,36,0.0,0.0,100,0.00,,,1.22,VWS V13.01,2013-06-01 16:59:00,
2013-06-01 12:04:00,64.2,64.2,29.86,NE,36,0.0,0.0,100,0.00,,,1.22,VWS V13.01,2013-06-01 17:04:00,
2013-06-01 12:09:00,64.2,64.2,29.86,NNW,337,0.0,0.0,100,0.00,,,1.22,VWS V13.01,2013-06-01 17:09:00,
2013-06-01 12:14:00,64.2,64.2,29.86,NNW,337,0.0,0.0,100,0.00,,,1.22,VWS V13.01,2013-06-01 17:14:00,
2013-06-01 12:19:00,64.2,64.2,29.86,NNW,337,0.0,0.0,100,0.00,,,1.22,VWS V13.01,2013-06-01 17:19:00,
2013-06-01 12:24:00,64.2,64.2,29.86,North,3,0.0,0.0,100,0.00,,,1.22,VWS V13.01,2013-06-01 17:24:00,
2013-06-01 12:29:00,64.4,64.4,29.86,North,5,0.0,0.0,100,0.00,,,1.22,VWS V13.01,2013-06-01 17:29:00,
2013-06-01 12:34:00,64.2,64.2,29.86,NNW,330,0.0,0.0,100,0.00,,,1.22,VWS V13.01,2013-06-01 17:34:00,
2013-06-01 12:39:00,64.2,64.2,29.86,NNW,331,0.0,0.0,100,0.00,,,1.22,VWS V13.01,2013-06-01 17:39:00,
2013-06-01 12:44:00,64.2,64.2,29.89,NNW,330,0.0,0.0,100,0.00,,,1.22,VWS V13.01,2013-06-01 17:44:00,
2013-06-01 12:49:00,64.4,64.4,29.89,NNW,331,0.0,0.0,100,0.00,,,1.22,VWS V13.01,2013-06-01 17:49:00,
2013-06-01 12:54:00,64.4,64.4,29.89,NNW,336,0.0,0.0,100,0.00,,,1.22,VWS V13.01,2013-06-01 17:54:00,
2013-06-01 12:59:00,64.6,64.6,29.86,NNE,26,0.0,2.7,100,0.00,,,1.22,VWS V13.01,2013-06-01 17:59:00,
2013-06-01 13:04:00,64.4,64.4,29.86,NNW,345,0.0,2.2,100,0.00,,,1.22,VWS V13.01,2013-06-01 18:04:00,
2013-06-01 13:09:00,64.6,64.6,29.86,North,7,0.0,0.0,100,0.00,,,1.22,VWS V13.01,2013-06-01 18:09:00,
2013-06-01 13:14:00,64.6,64.6,29.86,NNE,19,0.0,2.2,100,0.00,,,1.22,VWS V13.01,2013-06-01 18:14:00,
2013-06-01 13:19:00,64.6,64.6,29.86,NNW,334,0.0,0.0,100,0.00,,,1.22,VWS V13.01,2013-06-01 18:19:00,
2013-06-01 13:24:00,64.7,64.7,29.86,North,6,0.0,0.0,100,0.00,,,1.22,VWS V13.01,2013-06-01 18:24:00,
2013-06-01 13:28:00,64.7,64.7,29.86,NNE,22,2.7,3.1,100,0.00,,,1.22,VWS V13.01,2013-06-01 18:28:00,
2013-06-01 13:33:00,64.9,64.9,29.86,North,352,0.0,0.0,100,0.00,,,1.22,VWS V13.01,2013-06-01 18:33:00,
2013-06-01 13:38:00,65.3,65.3,29.86,NNW,344,0.0,0.0,100,0.00,,,1.22,VWS V13.01,2013-06-01 18:38:00,
2013-06-01 13:43:00,65.3,65.3,29.89,NNE,14,2.2,3.1,100,0.00,,,1.22,VWS V13.01,2013-06-01 18:43:00,
2013-06-01 13:48:00,65.3,65.3,29.89,East,80,0.0,0.0,100,0.00,,,1.22,VWS V13.01,2013-06-01 18:48:00,
2013-06-01 13:53:00,65.3,65.3,29.89,NNE,33,0.0,0.0,100,0.00,,,1.22,VWS V13.01,2013-06-01 18:53:00,
2013-06-01 13:58:00,65.3,65.3,29.89,NNE,31,2.7,2.7,100,0.00,,,1.22,VWS V13.01,2013-06-01 18:58:00,
2013-06-01 14:03:00,65.6,65.6,29.89,NNE,31,0.0,0.0,100,0.00,,,1.22,VWS V13.01,2013-06-01 19:03:00,
2013-06-01 14:08:00,65.5,65.5,29.89,North,6,0.0,4.0,100,0.00,,,1.22,VWS V13.01,2013-06-01 19:08:00,
2013-06-01 14:13:00,65.8,65.8,29.89,NNW,340,3.1,3.1,100,0.00,,,1.22,VWS V13.01,2013-06-01 19:13:00,
2013-06-01 14:18:00,66.4,65.8,29.86,North,2,0.0,2.7,98,0.00,,,1.22,VWS V13.01,2013-06-01 19:18:00,
2013-06-01 14:23:00,66.7,65.2,29.86,NE,37,0.0,0.0,95,0.00,,,1.22,VWS V13.01,2013-06-01 19:23:00,
2013-06-01 14:28:00,66.7,64.0,29.89,NNE,27,4.0,4.0,91,0.00,,,1.22,VWS V13.01,2013-06-01 19:28:00,
2013-06-01 14:33:00,67.1,64.4,29.89,North,1,0.0,0.0,91,0.00,,,1.22,VWS V13.01,2013-06-01 19:33:00,
2013-06-01 14:38:00,67.1,63.4,29.89,North,8,3.1,5.4,88,0.00,,,1.22,VWS V13.01,2013-06-01 19:38:00,
2013-06-01 14:43:00,67.3,63.6,29.86,North,3,3.1,3.1,88,0.00,,,1.22,VWS V13.01,2013-06-01 19:43:00,
2013-06-01 14:48:00,67.6,63.6,29.86,NNE,16,0.0,0.0,87,0.00,,,1.22,VWS V13.01,2013-06-01 19:48:00,
2013-06-01 14:53:00,68.0,64.0,29.86,West,264,0.0,0.0,87,0.00,,,1.22,VWS V13.01,2013-06-01 19:53:00,
2013-06-01 14:58:00,68.5,63.8,29.86,ESE,120,3.1,3.1,85,0.00,,,1.22,VWS V13.01,2013-06-01 19:58:00,
2013-06-01 15:03:00,68.2,63.5,29.89,SE,128,0.0,2.7,85,0.00,,,1.22,VWS V13.01,2013-06-01 20:03:00,
2013-06-01 15:08:00,68.2,63.8,29.89,NE,55,2.2,2.2,86,0.00,,,1.22,VWS V13.01,2013-06-01 20:08:00,
2013-06-01 15:13:00,68.3,64.3,29.89,ENE,69,0.0,0.0,87,0.00,,,1.22,VWS V13.01,2013-06-01 20:13:00,
2013-06-01 15:18:00,68.2,63.2,29.89,SE,127,0.0,0.0,84,0.00,,,1.22,VWS V13.01,2013-06-01 20:18:00,
2013-06-01 15:23:00,68.2,63.5,29.89,ENE,74,0.0,0.0,85,0.00,,,1.22,VWS V13.01,2013-06-01 20:23:00,
2013-06-01 15:28:00,68.3,62.6,29.86,NNE,29,0.0,0.0,82,0.00,,,1.22,VWS V13.01,2013-06-01 20:28:00,
2013-06-01 15:33:00,68.5,62.8,29.86,ESE,117,4.9,4.9,82,0.00,,,1.22,VWS V13.01,2013-06-01 20:33:00,
2013-06-01 15:38:00,68.3,63.3,29.86,ENE,76,3.1,3.1,84,0.00,,,1.22,VWS V13.01,2013-06-01 20:38:00,
2013-06-01 15:43:00,68.5,62.8,29.86,East,93,0.0,2.2,82,0.00,,,1.22,VWS V13.01,2013-06-01 20:43:00,
2013-06-01 15:48:00,69.2,63.9,29.83,SE,130,5.4,5.4,83,0.00,,,1.22,VWS V13.01,2013-06-01 20:48:00,
2013-06-01 15:53:00,69.6,62.8,29.83,SE,130,0.0,0.0,79,0.00,,,1.22,VWS V13.01,2013-06-01 20:53:00,
2013-06-01 15:58:00,69.8,63.0,29.86,ESE,118,2.2,3.1,79,0.00,,,1.22,VWS V13.01,2013-06-01 20:58:00,
2013-06-01 16:03:00,69.4,63.0,29.86,SSE,165,4.9,4.9,80,0.00,,,1.22,VWS V13.01,2013-06-01 21:03:00,
2013-06-01 16:08:00,69.2,63.9,29.86,SE,134,3.1,3.1,83,0.00,,,1.22,VWS V13.01,2013-06-01 21:08:00,
2013-06-01 16:13:00,69.1,63.3,29.86,East,88,3.1,4.0,82,0.00,,,1.22,VWS V13.01,2013-06-01 21:13:00,
2013-06-01 16:18:00,69.1,63.3,29.86,SSE,147,2.2,2.7,82,0.00,,,1.22,VWS V13.01,2013-06-01 21:18:00,
2013-06-01 16:23:00,69.2,63.5,29.86,SE,132,3.1,3.1,82,0.00,,,1.22,VWS V13.01,2013-06-01 21:23:00,
2013-06-01 16:28:00,69.2,63.2,29.86,SE,131,0.0,0.0,81,0.00,,,1.22,VWS V13.01,2013-06-01 21:28:00,
2013-06-01 16:33:00,69.1,63.0,29.86,SSE,161,0.0,0.0,81,0.00,,,1.22,VWS V13.01,2013-06-01 21:33:00,
2013-06-01 16:38:00,68.9,62.8,29.86,SSE,161,0.0,0.0,81,0.00,,,1.22,VWS V13.01,2013-06-01 21:38:00,
2013-06-01 16:43:00,68.7,62.3,29.86,South,179,3.1,3.1,80,0.00,,,1.22,VWS V13.01,2013-06-01 21:43:00,
2013-06-01 16:48:00,68.7,62.6,29.86,SE,135,0.0,0.0,81,0.00,,,1.22,VWS V13.01,2013-06-01 21:48:00,
2013-06-01 16:53:00,68.9,63.2,29.86,ESE,117,0.0,0.0,82,0.00,,,1.22,VWS V13.01,2013-06-01 21:53:00,
2013-06-01 16:58:00,69.1,63.3,29.86,ENE,70,0.0,0.0,82,0.00,,,1.22,VWS V13.01,2013-06-01 21:58:00,
2013-06-01 17:03:00,69.1,62.6,29.86,SSE,160,0.0,0.0,80,0.00,,,1.22,VWS V13.01,2013-06-01 22:03:00,
2013-06-01 17:08:00,68.9,62.5,29.86,SSE,160,0.0,0.0,80,0.00,,,1.22,VWS V13.01,2013-06-01 22:08:00,
2013-06-01 17:13:00,69.1,63.0,29.86,WSW,252,0.0,0.0,81,0.00,,,1.22,VWS V13.01,2013-06-01 22:13:00,
2013-06-01 17:18:00,69.2,63.2,29.86,SSE,161,0.0,0.0,81,0.00,,,1.22,VWS V13.01,2013-06-01 22:18:00,
2013-06-01 17:23:00,70.0,63.9,29.86,East,98,2.7,2.7,81,0.00,,,1.22,VWS V13.01,2013-06-01 22:23:00,
2013-06-01 17:28:00,70.1,62.2,29.86,East,100,3.6,4.9,76,0.00,,,1.22,VWS V13.01,2013-06-01 22:28:00,
2013-06-01 17:33:00,70.3,62.8,29.86,East,91,0.0,0.0,77,0.00,,,1.22,VWS V13.01,2013-06-01 22:33:00,
2013-06-01 17:38:00,70.9,63.3,29.86,South,169,0.0,0.0,77,0.00,,,1.22,VWS V13.01,2013-06-01 22:38:00,
2013-06-01 17:43:00,71.2,63.3,29.86,South,186,3.6,3.6,76,0.00,,,1.22,VWS V13.01,2013-06-01 22:43:00,
2013-06-01 17:48:00,71.2,61.7,29.86,WSW,243,0.0,0.0,72,0.00,,,1.22,VWS V13.01,2013-06-01 22:48:00,
2013-06-01 17:53:00,71.6,62.1,29.86,East,85,0.0,0.0,72,0.00,,,1.22,VWS V13.01,2013-06-01 22:53:00,
2013-06-01 17:58:00,71.8,62.3,29.86,WNW,283,0.0,0.0,72,0.00,,,1.22,VWS V13.01,2013-06-01 22:58:00,
2013-06-01 18:03:00,71.9,62.0,29.86,WNW,283,0.0,0.0,71,0.00,,,1.22,VWS V13.01,2013-06-01 23:03:00,
2013-06-01 18:08:00,72.1,62.2,29.86,WSW,255,2.7,3.1,71,0.00,,,1.22,VWS V13.01,2013-06-01 23:08:00,
2013-06-01 18:13:00,71.4,61.5,29.86,West,264,2.2,2.7,71,0.00,,,1.22,VWS V13.01,2013-06-01 23:13:00,
2013-06-01 18:18:00,71.2,61.3,29.86,West,278,3.6,3.6,71,0.00,,,1.22,VWS V13.01,2013-06-01 23:18:00,
2013-06-01 18:23:00,71.4,62.7,29.86,SSE,147,3.6,3.6,74,0.00,,,1.22,VWS V13.01,2013-06-01 23:23:00,
2013-06-01 18:28:00,71.6,62.9,29.86,South,185,4.0,4.0,74,0.00,,,1.22,VWS V13.01,2013-06-01 23:28:00,
2013-06-01 18:33:00,71.6,62.1,29.86,SSE,162,2.7,3.1,72,0.00,,,1.22,VWS V13.01,2013-06-01 23:33:00,
2013-06-01 18:38:00,71.9,62.0,29.86,WSW,248,3.1,3.1,71,0.00,,,1.22,VWS V13.01,2013-06-01 23:38:00,
2013-06-01 18:43:00,71.9,61.6,29.86,SSE,154,0.0,0.0,70,0.00,,,1.22,VWS V13.01,2013-06-01 23:43:00,
2013-06-01 18:48:00,72.1,62.2,29.86,SSE,155,3.6,3.6,71,0.00,,,1.22,VWS V13.01,2013-06-01 23:48:00,
2013-06-01 18:53:00,72.3,63.2,29.86,South,180,4.0,4.0,73,0.00,,,1.22,VWS V13.01,2013-06-01 23:53:00,
2013-06-01 18:58:00,72.1,62.2,29.86,South,184,3.1,4.0,71,0.00,,,1.22,VWS V13.01,2013-06-01 23:58:00,
2013-06-01 19:03:00,71.8,62.3,29.86,SSE,157,3.1,3.1,72,0.00,,,1.22,VWS V13.01,2013-06-02 00:03:00,
2013-06-01 19:08:00,71.2,62.1,29.86,SSE,164,0.0,2.7,73,0.00,,,1.22,VWS V13.01,2013-06-02 00:08:00,
2013-06-01 19:13:00,71.2,62.9,29.86,SE,143,0.0,0.0,75,0.00,,,1.22,VWS V13.01,2013-06-02 00:13:00,
2013-06-01 19:18:00,71.2,63.3,29.86,East,97,4.5,4.5,76,0.00,,,1.22,VWS V13.01,2013-06-02 00:18:00,
2013-06-01 19:23:00,70.9,62.9,29.86,SSE,147,2.2,3.1,76,0.00,,,1.22,VWS V13.01,2013-06-02 00:23:00,
2013-06-01 19:28:00,70.7,63.1,29.86,SE,131,2.2,3.1,77,0.00,,,1.22,VWS V13.01,2013-06-02 00:28:00,
2013-06-01 19:33:00,70.5,63.3,29.86,SE,130,0.0,0.0,78,0.00,,,1.22,VWS V13.01,2013-06-02 00:33:00,
2013-06-01 19:38:00,70.3,63.1,29.86,SSE,150,2.7,3.6,78,0.00,,,1.22,VWS V13.01,2013-06-02 00:38:00,
2013-06-01 19:42:00,70.3,63.1,29.86,ESE,110,0.0,0.0,78,0.00,,,1.22,VWS V13.01,2013-06-02 00:42:00,
2013-06-01 19:47:00,70.1,63.3,29.86,ESE,110,0.0,0.0,79,0.00,,,1.22,VWS V13.01,2013-06-02 00:47:00,
2013-06-01 19:52:00,70.1,63.3,29.86,ESE,110,0.0,0.0,79,0.00,,,1.22,VWS V13.01,2013-06-02 00:52:00,
2013-06-01 19:57:00,70.1,63.7,29.86,ESE,110,0.0,0.0,80,0.00,,,1.22,VWS V13.01,2013-06-02 00:57:00,
2013-06-01 20:02:00,70.0,63.5,29.86,SE,125,0.0,0.0,80,0.00,,,1.22,VWS V13.01,2013-06-02 01:02:00,
2013-06-01 20:07:00,69.8,63.3,29.86,SE,143,0.0,0.0,80,0.00,,,1.22,VWS V13.01,2013-06-02 01:07:00,
2013-06-01 20:12:00,69.6,63.5,29.86,East,94,0.0,3.1,81,0.00,,,1.22,VWS V13.01,2013-06-02 01:12:00,
2013-06-01 20:17:00,69.4,63.7,29.89,ESE,120,0.0,0.0,82,0.00,,,1.22,VWS V13.01,2013-06-02 01:17:00,
2013-06-01 20:22:00,69.2,64.2,29.89,ESE,120,0.0,0.0,84,0.00,,,1.22,VWS V13.01,2013-06-02 01:22:00,
2013-06-01 20:27:00,69.1,64.0,29.89,East,84,0.0,0.0,84,0.00,,,1.22,VWS V13.01,2013-06-02 01:27:00,
2013-06-01 20:32:00,69.1,64.4,29.89,ESE,110,2.2,3.6,85,0.00,,,1.22,VWS V13.01,2013-06-02 01:32:00,
2013-06-01 20:37:00,68.9,64.5,29.89,East,84,0.0,0.0,86,0.00,,,1.22,VWS V13.01,2013-06-02 01:37:00,
2013-06-01 20:42:00,68.7,64.3,29.89,East,91,0.0,0.0,86,0.00,,,1.22,VWS V13.01,2013-06-02 01:42:00,
2013-06-01 20:47:00,68.7,65.0,29.89,East,91,0.0,0.0,88,0.00,,,1.22,VWS V13.01,2013-06-02 01:47:00,
2013-06-01 20:52:00,68.5,64.8,29.89,East,91,0.0,0.0,88,0.00,,,1.22,VWS V13.01,2013-06-02 01:52:00,
2013-06-01 20:57:00,68.3,64.7,29.89,ENE,68,0.0,0.0,88,0.00,,,1.22,VWS V13.01,2013-06-02 01:57:00,
2013-06-01 21:02:00,68.2,64.5,29.89,ENE,68,0.0,0.0,88,0.00,,,1.22,VWS V13.01,2013-06-02 02:02:00,
2013-06-01 21:07:00,67.8,64.1,29.89,East,97,0.0,0.0,88,0.00,,,1.22,VWS V13.01,2013-06-02 02:07:00,
2013-06-01 21:12:00,67.6,64.3,29.89,ESE,117,0.0,0.0,89,0.00,,,1.22,VWS V13.01,2013-06-02 02:12:00,
2013-06-01 21:17:00,67.6,64.9,29.86,ESE,117,0.0,0.0,91,0.00,,,1.22,VWS V13.01,2013-06-02 02:17:00,
2013-06-01 21:22:00,67.4,65.0,29.86,ESE,117,0.0,0.0,92,0.00,,,1.22,VWS V13.01,2013-06-02 02:22:00,
2013-06-01 21:27:00,67.3,65.2,29.86,ESE,117,0.0,0.0,93,0.00,,,1.22,VWS V13.01,2013-06-02 02:27:00,
2013-06-01 21:32:00,67.1,65.0,29.89,ESE,117,0.0,0.0,93,0.00,,,1.22,VWS V13.01,2013-06-02 02:32:00,
2013-06-01 21:37:00,66.9,64.5,29.89,ESE,117,0.0,0.0,92,0.00,,,1.22,VWS V13.01,2013-06-02 02:37:00,
2013-06-01 21:42:00,66.9,64.5,29.89,ESE,117,0.0,0.0,92,0.00,,,1.22,VWS V13.01,2013-06-02 02:42:00,
2013-06-01 21:47:00,66.9,65.7,29.92,ESE,117,0.0,0.0,96,0.00,,,1.22,VWS V13.01,2013-06-02 02:47:00,
2013-06-01 21:52:00,66.9,66.0,29.92,ESE,117,0.0,0.0,97,0.00,,,1.22,VWS V13.01,2013-06-02 02:52:00,
2013-06-01 21:57:00,66.9,66.3,29.92,ESE,117,0.0,0.0,98,0.00,,,1.22,VWS V13.01,2013-06-02 02:57:00,
2013-06-01 22:02:00,66.9,66.6,29.92,ESE,117,0.0,0.0,99,0.00,,,1.22,VWS V13.01,2013-06-02 03:02:00,
2013-06-01 22:07:00,66.7,66.4,29.92,ESE,117,0.0,0.0,99,0.00,,,1.22,VWS V13.01,2013-06-02 03:07:00,
2013-06-01 22:12:00,66.5,66.0,29.92,ESE,117,0.0,0.0,98,0.00,,,1.22,VWS V13.01,2013-06-02 03:12:00,
2013-06-01 22:17:00,66.4,65.8,29.92,ESE,117,0.0,0.0,98,0.00,,,1.22,VWS V13.01,2013-06-02 03:17:00,
2013-06-01 22:22:00,66.2,65.6,29.92,ESE,117,0.0,0.0,98,0.00,,,1.22,VWS V13.01,2013-06-02 03:22:00,
2013-06-01 22:27:00,66.0,65.4,29.92,ESE,117,0.0,0.0,98,0.00,,,1.22,VWS V13.01,2013-06-02 03:27:00,
2013-06-01 22:32:00,66.0,65.7,29.92,ESE,117,0.0,0.0,99,0.00,,,1.22,VWS V13.01,2013-06-02 03:32:00,
2013-06-01 22:37:00,65.8,65.8,29.92,ESE,117,0.0,0.0,100,0.00,,,1.22,VWS V13.01,2013-06-02 03:37:00,
2013-06-01 22:42:00,65.5,65.5,29.92,ESE,117,0.0,0.0,100,0.00,,,1.22,VWS V13.01,2013-06-02 03:42:00,
2013-06-01 22:47:00,65.3,65.3,29.92,ESE,117,0.0,0.0,100,0.00,,,1.22,VWS V13.01,2013-06-02 03:47:00,
2013-06-01 22:52:00,64.9,64.9,29.92,ESE,117,0.0,0.0,100,0.00,,,1.22,VWS V13.01,2013-06-02 03:52:00,
2013-06-01 22:57:00,64.9,64.9,29.92,ESE,117,0.0,0.0,100,0.00,,,1.22,VWS V13.01,2013-06-02 03:57:00,
2013-06-01 23:01:00,64.7,64.7,29.92,ESE,117,0.0,0.0,100,0.00,,,1.22,VWS V13.01,2013-06-02 04:01:00,
2013-06-01 23:06:00,64.6,64.6,29.92,ESE,117,0.0,0.0,100,0.00,,,1.22,VWS V13.01,2013-06-02 04:06:00,
2013-06-01 23:11:00,64.6,64.6,29.92,ESE,117,0.0,0.0,100,0.00,,,1.22,VWS V13.01,2013-06-02 04:11:00,
2013-06-01 23:16:00,64.4,64.4,29.92,ESE,117,0.0,0.0,100,0.00,,,1.22,VWS V13.01,2013-06-02 04:16:00,
2013-06-01 23:21:00,64.4,64.4,29.92,ESE,117,0.0,0.0,100,0.00,,,1.22,VWS V13.01,2013-06-02 04:21:00,
2013-06-01 23:26:00,64.4,64.4,29.92,ESE,117,0.0,0.0,100,0.00,,,1.22,VWS V13.01,2013-06-02 04:26:00,
2013-06-01 23:31:00,64.2,64.2,29.92,ESE,117,0.0,0.0,100,0.00,,,1.22,VWS V13.01,2013-06-02 04:31:00,
2013-06-01 23:36:00,64.0,64.0,29.92,ESE,117,0.0,0.0,100,0.00,,,1.22,VWS V13.01,2013-06-02 04:36:00,
2013-06-01 23:41:00,63.8,63.8,29.92,ESE,117,0.0,0.0,100,0.00,,,1.22,VWS V13.01,2013-06-02 04:41:00,
2013-06-01 23:46:00,63.8,63.8,29.92,ESE,117,0.0,0.0,100,0.00,,,1.22,VWS V13.01,2013-06-02 04:46:00,
2013-06-01 23:51:00,63.5,63.5,29.92,ESE,117,0.0,0.0,100,0.00,,,1.22,VWS V13.01,2013-06-02 04:51:00,
2013-06-01 23:56:00,63.5,63.5,29.92,NE,40,0.0,0.0,100,0.00,,,1.22,VWS V13.01,2013-06-02 04:56:00,